Time;durP1;ratioP1;P1;durP2;ratioP2;P2;SDS_P1;SDS_P2;PMS_P1;PMS_P2;Temp;Humidity;BMP_temperature;BMP_pressure;BME280_temperature;BME280_humidity;BME280_pressure;Samples;Min_cycle;Max_cycle;Signal;HPM_P1;HPM_P2
2022/07/31 00:20:19;;;;;;;14.32;9.73;;;;;;;;;;4392094;32;20074;-65
2022/07/31 01:16:31;;;;;;;14.95;9.82;;;;;;;;;;4390934;32;20237;-65
2022/07/31 01:38:16;;;;;;;12.95;9.05;;;;;;;;;;4375868;32;20121;-65
2022/07/31 02:02:22;;;;;;;12.77;9.07;;;;;;;;;;4393503;32;20153;-65
2022/07/31 02:11:36;;;;;;;10.93;8.68;;;;;;;;;;4375226;32;20113;-64
2022/07/31 02:14:21;;;;;;;12.15;8.20;;;;;;;;;;4350953;32;20093;-65
2022/07/31 02:17:07;;;;;;;11.55;8.57;;;;;;;;;;4350415;32;20105;-64
2022/07/31 02:23:17;;;;;;;12.68;9.13;;;;;;;;;;4360345;32;20182;-65
2022/07/31 02:29:44;;;;;;;15.80;8.85;;;;;;;;;;4359986;32;20097;-65
2022/07/31 02:32:13;;;;;;;12.37;8.63;;;;;;;;;;4360055;32;20075;-66
2022/07/31 02:34:58;;;;;;;17.25;9.52;;;;;;;;;;4347700;32;20106;-64
2022/07/31 02:41:06;;;;;;;12.65;9.27;;;;;;;;;;4348042;32;20089;-65
2022/07/31 02:43:34;;;;;;;14.40;8.93;;;;;;;;;;4350334;32;20160;-65
2022/07/31 02:49:23;;;;;;;13.40;9.50;;;;;;;;;;4345270;33;20104;-65
2022/07/31 02:51:51;;;;;;;13.95;9.55;;;;;;;;;;4345325;33;20160;-65
2022/07/31 02:54:18;;;;;;;14.18;9.60;;;;;;;;;;4358028;32;20228;-66
2022/07/31 02:56:46;;;;;;;12.13;8.35;;;;;;;;;;4347830;32;20089;-65
2022/07/31 02:59:12;;;;;;;13.20;9.30;;;;;;;;;;4347268;32;20102;-65
2022/07/31 03:01:39;;;;;;;14.77;9.60;;;;;;;;;;4359791;32;20105;-65
2022/07/31 03:04:25;;;;;;;13.68;9.48;;;;;;;;;;4335592;32;20176;-66
2022/07/31 03:06:52;;;;;;;10.88;8.77;;;;;;;;;;4359948;32;20157;-65
2022/07/31 03:09:26;;;;;;;13.93;9.25;;;;;;;;;;4347020;32;20082;-65
2022/07/31 03:11:53;;;;;;;11.65;8.40;;;;;;;;;;4347313;32;20531;-65
2022/07/31 03:14:38;;;;;;;15.07;8.30;;;;;;;;;;4334889;32;20544;-65
2022/07/31 03:17:05;;;;;;;13.68;9.50;;;;;;;;;;4347259;32;20101;-65
2022/07/31 03:19:32;;;;;;;13.30;9.73;;;;;;;;;;4347122;32;20098;-65
2022/07/31 03:21:59;;;;;;;13.70;9.80;;;;;;;;;;4335285;32;20090;-65
2022/07/31 03:24:26;;;;;;;14.48;9.70;;;;;;;;;;4385752;32;20508;-66
2022/07/31 03:26:53;;;;;;;14.87;9.27;;;;;;;;;;4391009;32;20077;-65
2022/07/31 03:29:20;;;;;;;13.88;9.75;;;;;;;;;;4391692;32;20195;-65
2022/07/31 03:31:46;;;;;;;12.40;9.40;;;;;;;;;;4390358;32;20088;-65
2022/07/31 03:34:13;;;;;;;14.45;8.98;;;;;;;;;;4390390;32;20077;-65
2022/07/31 03:36:40;;;;;;;11.90;8.57;;;;;;;;;;4390035;32;20520;-65
2022/07/31 03:39:07;;;;;;;15.90;9.07;;;;;;;;;;4390138;32;20508;-66
2022/07/31 03:41:33;;;;;;;11.15;8.70;;;;;;;;;;4389483;32;20077;-65
2022/07/31 03:44:00;;;;;;;14.45;10.10;;;;;;;;;;4390068;32;20157;-65
2022/07/31 03:46:27;;;;;;;13.45;11.00;;;;;;;;;;4390191;32;20154;-65
2022/07/31 03:48:54;;;;;;;13.85;9.98;;;;;;;;;;4391698;32;20112;-65
2022/07/31 03:51:21;;;;;;;15.07;10.68;;;;;;;;;;4390578;32;20077;-65
2022/07/31 03:53:48;;;;;;;14.48;10.15;;;;;;;;;;4390109;32;20089;-65
2022/07/31 03:56:16;;;;;;;14.43;10.48;;;;;;;;;;4390101;32;20077;-64
2022/07/31 03:58:42;;;;;;;12.70;9.18;;;;;;;;;;4390521;32;20082;-65
2022/07/31 04:01:09;;;;;;;15.23;10.15;;;;;;;;;;4377495;32;20077;-64
2022/07/31 04:03:36;;;;;;;12.45;9.48;;;;;;;;;;4389977;32;20053;-64
2022/07/31 04:06:03;;;;;;;15.45;9.55;;;;;;;;;;4389659;32;20089;-64
2022/07/31 04:08:30;;;;;;;13.38;9.85;;;;;;;;;;4391150;32;20069;-65
2022/07/31 04:10:56;;;;;;;12.65;9.25;;;;;;;;;;4391500;32;20099;-66
2022/07/31 04:13:23;;;;;;;14.52;9.23;;;;;;;;;;4389903;32;20515;-65
2022/07/31 04:15:50;;;;;;;13.43;9.73;;;;;;;;;;4391571;32;20564;-65
2022/07/31 04:18:16;;;;;;;13.68;9.23;;;;;;;;;;4391061;32;20093;-66
2022/07/31 04:20:43;;;;;;;13.50;9.27;;;;;;;;;;4391079;32;20497;-66
2022/07/31 04:23:10;;;;;;;13.30;8.77;;;;;;;;;;4389919;32;20096;-64
2022/07/31 04:25:36;;;;;;;13.05;10.07;;;;;;;;;;4391481;32;20193;-66
2022/07/31 04:28:03;;;;;;;14.43;9.55;;;;;;;;;;4389915;32;20534;-66
2022/07/31 04:30:30;;;;;;;14.45;9.82;;;;;;;;;;4391301;32;20090;-65
2022/07/31 04:32:58;;;;;;;14.30;9.02;;;;;;;;;;4391054;32;20088;-66
2022/07/31 04:35:24;;;;;;;12.57;9.20;;;;;;;;;;4390946;32;20074;-65
2022/07/31 04:37:51;;;;;;;12.73;9.00;;;;;;;;;;4389864;32;20523;-65
2022/07/31 04:40:18;;;;;;;15.10;9.65;;;;;;;;;;4391139;32;20157;-64
2022/07/31 04:42:44;;;;;;;13.68;9.68;;;;;;;;;;4389578;32;20140;-65
2022/07/31 04:45:11;;;;;;;14.27;9.88;;;;;;;;;;4389610;32;20079;-66
2022/07/31 04:47:37;;;;;;;10.95;8.70;;;;;;;;;;4390999;32;20169;-65
2022/07/31 04:50:05;;;;;;;13.13;8.93;;;;;;;;;;4390898;32;20262;-65
2022/07/31 04:52:33;;;;;;;12.10;8.75;;;;;;;;;;4392798;32;20081;-65
2022/07/31 04:55:00;;;;;;;12.75;9.65;;;;;;;;;;4394312;32;20164;-65
2022/07/31 04:57:27;;;;;;;13.75;9.48;;;;;;;;;;4392531;32;20074;-65
2022/07/31 04:59:53;;;;;;;10.88;8.07;;;;;;;;;;4380171;32;20149;-66
2022/07/31 05:02:20;;;;;;;10.20;8.35;;;;;;;;;;4379783;32;20096;-65
2022/07/31 05:04:47;;;;;;;11.27;8.60;;;;;;;;;;4392337;32;20173;-65
2022/07/31 05:07:13;;;;;;;11.93;8.23;;;;;;;;;;4393829;32;20083;-65
2022/07/31 05:09:40;;;;;;;11.45;8.27;;;;;;;;;;4392924;32;20100;-65
2022/07/31 05:12:07;;;;;;;9.25;7.22;;;;;;;;;;4393793;32;20136;-66
2022/07/31 05:14:33;;;;;;;10.70;7.50;;;;;;;;;;4367486;32;20086;-65
2022/07/31 05:17:00;;;;;;;13.38;8.05;;;;;;;;;;4392354;32;20098;-65
2022/07/31 05:19:28;;;;;;;9.90;7.03;;;;;;;;;;4380225;32;20153;-65
2022/07/31 05:21:58;;;;;;;10.18;7.20;;;;;;;;;;4392193;32;20081;-65
2022/07/31 05:24:24;;;;;;;10.15;7.07;;;;;;;;;;4367705;32;20085;-65
2022/07/31 05:26:51;;;;;;;10.38;7.20;;;;;;;;;;4392114;32;20077;-65
2022/07/31 05:29:18;;;;;;;10.50;6.90;;;;;;;;;;4391792;32;20078;-65
2022/07/31 05:31:44;;;;;;;9.05;6.93;;;;;;;;;;4391859;32;20086;-64
2022/07/31 05:34:11;;;;;;;11.35;6.40;;;;;;;;;;4392249;32;20104;-65
2022/07/31 05:36:38;;;;;;;10.52;6.85;;;;;;;;;;4393463;32;20158;-65
2022/07/31 05:39:05;;;;;;;10.35;6.80;;;;;;;;;;4379667;32;20230;-66
2022/07/31 05:41:32;;;;;;;10.10;7.55;;;;;;;;;;4392149;32;20081;-65
2022/07/31 05:44:00;;;;;;;7.65;5.95;;;;;;;;;;4379907;32;20527;-64
2022/07/31 05:46:27;;;;;;;9.25;6.68;;;;;;;;;;4367577;32;20089;-65
2022/07/31 05:48:54;;;;;;;9.82;6.40;;;;;;;;;;4392105;32;20132;-65
2022/07/31 05:51:21;;;;;;;8.77;7.12;;;;;;;;;;4391467;32;20516;-66
2022/07/31 05:53:48;;;;;;;9.23;6.72;;;;;;;;;;4392823;32;20444;-65
2022/07/31 05:56:14;;;;;;;8.70;6.40;;;;;;;;;;4392997;32;20078;-66
2022/07/31 05:58:42;;;;;;;10.50;6.80;;;;;;;;;;4391360;32;20132;-66
2022/07/31 06:01:09;;;;;;;9.25;6.37;;;;;;;;;;4380081;32;20162;-66
2022/07/31 06:03:39;;;;;;;14.05;5.55;;;;;;;;;;4378226;32;20520;-65
2022/07/31 06:06:05;;;;;;;8.88;6.37;;;;;;;;;;4391125;32;20530;-65
2022/07/31 06:08:32;;;;;;;11.50;6.62;;;;;;;;;;4392873;32;20089;-66
2022/07/31 06:10:59;;;;;;;7.65;5.93;;;;;;;;;;4391129;32;20141;-65
2022/07/31 06:13:27;;;;;;;8.23;6.20;;;;;;;;;;4379257;32;20111;-65
2022/07/31 06:15:54;;;;;;;9.15;6.35;;;;;;;;;;4379368;32;20082;-66
2022/07/31 06:18:21;;;;;;;8.10;5.90;;;;;;;;;;4391651;32;20069;-66
2022/07/31 06:20:48;;;;;;;9.07;5.93;;;;;;;;;;4391327;32;20142;-64
2022/07/31 06:23:15;;;;;;;8.48;6.47;;;;;;;;;;4393065;32;20078;-65
2022/07/31 06:25:41;;;;;;;8.18;6.37;;;;;;;;;;4378526;32;20082;-65
2022/07/31 06:28:08;;;;;;;11.65;8.05;;;;;;;;;;4391039;32;20531;-65
2022/07/31 06:30:35;;;;;;;9.45;7.50;;;;;;;;;;4392774;32;20592;-66
2022/07/31 06:33:01;;;;;;;9.95;7.80;;;;;;;;;;4392361;32;20492;-66
2022/07/31 06:35:28;;;;;;;10.02;7.00;;;;;;;;;;4390937;32;20155;-65
2022/07/31 06:37:55;;;;;;;9.60;7.53;;;;;;;;;;4378465;32;20093;-66
2022/07/31 06:40:21;;;;;;;10.98;6.90;;;;;;;;;;4391375;32;20203;-66
2022/07/31 06:42:48;;;;;;;9.65;6.20;;;;;;;;;;4393255;32;20572;-66
2022/07/31 06:45:15;;;;;;;10.07;7.68;;;;;;;;;;4391595;32;20076;-65
2022/07/31 06:47:41;;;;;;;8.52;6.78;;;;;;;;;;4392260;32;20463;-65
2022/07/31 06:50:09;;;;;;;10.30;7.10;;;;;;;;;;4392291;32;20075;-66
2022/07/31 06:52:36;;;;;;;8.85;7.22;;;;;;;;;;4378622;32;20074;-66
2022/07/31 06:55:04;;;;;;;10.65;8.23;;;;;;;;;;4392001;32;20539;-65
2022/07/31 06:57:30;;;;;;;10.02;7.30;;;;;;;;;;4390802;32;20096;-66
2022/07/31 06:59:57;;;;;;;9.52;8.00;;;;;;;;;;4392657;32;20088;-65
2022/07/31 07:02:24;;;;;;;10.75;7.47;;;;;;;;;;4392210;32;20529;-65
2022/07/31 07:04:51;;;;;;;12.25;7.53;;;;;;;;;;4392251;32;20524;-65
2022/07/31 07:07:17;;;;;;;11.27;6.85;;;;;;;;;;4390346;32;20084;-66
2022/07/31 07:09:44;;;;;;;9.40;7.00;;;;;;;;;;4392064;32;20176;-66
2022/07/31 07:12:11;;;;;;;11.77;7.50;;;;;;;;;;4391727;32;20157;-66
2022/07/31 07:14:38;;;;;;;9.68;6.53;;;;;;;;;;4390261;32;20537;-65
2022/07/31 07:17:16;;;;;;;8.88;6.65;;;;;;;;;;4390483;32;20074;-66
2022/07/31 07:19:43;;;;;;;9.65;7.10;;;;;;;;;;4377440;32;20166;-66
2022/07/31 07:22:09;;;;;;;9.43;7.25;;;;;;;;;;4390546;32;20120;-65
2022/07/31 07:24:36;;;;;;;10.52;7.18;;;;;;;;;;4392131;32;20524;-65
2022/07/31 07:27:03;;;;;;;8.73;6.95;;;;;;;;;;4389974;32;20513;-64
2022/07/31 07:29:30;;;;;;;9.73;7.47;;;;;;;;;;4391875;32;20081;-65
2022/07/31 07:31:58;;;;;;;10.48;7.12;;;;;;;;;;4391877;32;20510;-64
2022/07/31 07:34:26;;;;;;;10.07;7.28;;;;;;;;;;4391542;32;20141;-65
2022/07/31 07:36:54;;;;;;;9.95;6.28;;;;;;;;;;4378066;32;20081;-65
2022/07/31 07:39:21;;;;;;;10.70;7.22;;;;;;;;;;4378391;32;20162;-64
2022/07/31 07:41:48;;;;;;;13.35;8.18;;;;;;;;;;4390711;32;20077;-65
2022/07/31 07:44:14;;;;;;;10.65;7.20;;;;;;;;;;4390020;32;20093;-64
2022/07/31 07:46:41;;;;;;;9.23;6.57;;;;;;;;;;4391473;32;20515;-65
2022/07/31 07:49:08;;;;;;;9.73;7.32;;;;;;;;;;4391933;32;20081;-65
2022/07/31 07:51:35;;;;;;;10.90;6.95;;;;;;;;;;4391744;32;20154;-63
2022/07/31 07:54:01;;;;;;;8.50;6.15;;;;;;;;;;4391672;32;20085;-64
2022/07/31 07:56:28;;;;;;;10.15;7.60;;;;;;;;;;4391622;32;20100;-64
2022/07/31 07:58:55;;;;;;;8.18;5.00;;;;;;;;;;4390039;32;20145;-65
2022/07/31 08:01:25;;;;;;;11.30;8.07;;;;;;;;;;4390406;32;20104;-64
2022/07/31 08:03:51;;;;;;;9.13;6.85;;;;;;;;;;4390184;32;20070;-65
2022/07/31 08:06:22;;;;;;;9.80;7.12;;;;;;;;;;4391435;32;20183;-65
2022/07/31 08:08:48;;;;;;;9.10;7.20;;;;;;;;;;4390765;32;20492;-65
2022/07/31 08:11:15;;;;;;;11.90;7.68;;;;;;;;;;4390737;32;20096;-64
2022/07/31 08:13:42;;;;;;;10.88;7.82;;;;;;;;;;4389693;32;20081;-65
2022/07/31 08:16:08;;;;;;;9.55;6.62;;;;;;;;;;4390003;32;20077;-63
2022/07/31 08:18:35;;;;;;;9.60;6.28;;;;;;;;;;4390114;32;20069;-64
2022/07/31 08:21:02;;;;;;;7.37;5.47;;;;;;;;;;4377367;32;20094;-64
2022/07/31 08:23:28;;;;;;;9.13;6.75;;;;;;;;;;4389758;32;20181;-65
2022/07/31 08:25:56;;;;;;;11.80;8.18;;;;;;;;;;4390978;32;20089;-64
2022/07/31 08:28:25;;;;;;;7.60;6.40;;;;;;;;;;4392112;32;20096;-66
2022/07/31 08:30:51;;;;;;;8.55;6.32;;;;;;;;;;4393179;32;20062;-63
2022/07/31 08:33:18;;;;;;;9.43;6.65;;;;;;;;;;4392792;32;20077;-65
2022/07/31 08:35:45;;;;;;;12.50;8.07;;;;;;;;;;4392978;32;20141;-64
2022/07/31 08:38:11;;;;;;;9.98;7.90;;;;;;;;;;4394022;32;20445;-65
2022/07/31 08:40:38;;;;;;;13.25;8.88;;;;;;;;;;4392634;32;20187;-65
2022/07/31 08:43:05;;;;;;;9.02;6.62;;;;;;;;;;4392447;32;20078;-65
2022/07/31 08:45:32;;;;;;;9.40;6.47;;;;;;;;;;4392574;32;20084;-65
2022/07/31 08:47:59;;;;;;;9.38;7.53;;;;;;;;;;4392203;32;20058;-65
2022/07/31 08:50:26;;;;;;;9.77;6.75;;;;;;;;;;4380076;32;20100;-64
2022/07/31 08:52:54;;;;;;;8.98;6.60;;;;;;;;;;4392281;32;20467;-65
2022/07/31 08:55:22;;;;;;;9.52;6.43;;;;;;;;;;4379942;32;20231;-64
2022/07/31 08:57:49;;;;;;;12.15;7.30;;;;;;;;;;4392573;32;20074;-64
2022/07/31 09:00:16;;;;;;;10.73;7.22;;;;;;;;;;4392949;32;20082;-65
2022/07/31 09:02:43;;;;;;;10.55;7.68;;;;;;;;;;4392474;32;20129;-64
2022/07/31 09:05:12;;;;;;;8.95;7.25;;;;;;;;;;4392369;32;20086;-65
2022/07/31 09:07:39;;;;;;;10.90;8.35;;;;;;;;;;4392236;32;20467;-66
2022/07/31 09:10:20;;;;;;;9.38;5.57;;;;;;;;;;4393529;32;20070;-65
2022/07/31 09:12:47;;;;;;;7.65;5.72;;;;;;;;;;4394337;32;20090;-65
2022/07/31 09:15:21;;;;;;;7.70;5.97;;;;;;;;;;4391845;32;20518;-64
2022/07/31 09:17:48;;;;;;;9.60;6.95;;;;;;;;;;4392132;32;20447;-65
2022/07/31 09:20:20;;;;;;;10.60;7.20;;;;;;;;;;4392005;32;20101;-65
2022/07/31 09:22:47;;;;;;;12.00;7.43;;;;;;;;;;4392395;32;20427;-65
2022/07/31 09:25:17;;;;;;;9.60;7.93;;;;;;;;;;4392464;32;20082;-64
2022/07/31 09:27:45;;;;;;;7.80;6.28;;;;;;;;;;4379933;32;20093;-65
2022/07/31 09:30:12;;;;;;;6.37;4.35;;;;;;;;;;4392093;32;20080;-65
2022/07/31 09:32:39;;;;;;;9.20;6.90;;;;;;;;;;4366829;32;20078;-64
2022/07/31 09:35:14;;;;;;;9.50;6.70;;;;;;;;;;4393408;32;20159;-64
2022/07/31 09:37:41;;;;;;;8.27;6.72;;;;;;;;;;4392699;32;20096;-65
2022/07/31 09:40:08;;;;;;;11.52;7.45;;;;;;;;;;4378834;32;20503;-65
2022/07/31 09:42:37;;;;;;;11.20;7.43;;;;;;;;;;4393019;32;20062;-65
2022/07/31 09:45:16;;;;;;;9.15;6.68;;;;;;;;;;4392205;32;20066;-65
2022/07/31 09:47:42;;;;;;;8.95;7.22;;;;;;;;;;4379734;32;20086;-65
2022/07/31 09:50:09;;;;;;;10.77;7.10;;;;;;;;;;4379376;32;20174;-64
2022/07/31 09:52:36;;;;;;;9.52;6.75;;;;;;;;;;4391866;32;20072;-64
2022/07/31 09:55:14;;;;;;;13.50;8.48;;;;;;;;;;4393280;32;20081;-63
2022/07/31 09:57:55;;;;;;;8.88;7.20;;;;;;;;;;4392033;32;20130;-64
2022/07/31 10:00:23;;;;;;;9.05;7.35;;;;;;;;;;4392060;32;20451;-65
2022/07/31 10:02:54;;;;;;;10.07;7.10;;;;;;;;;;4391731;32;20084;-65
2022/07/31 10:05:23;;;;;;;10.48;7.90;;;;;;;;;;4379783;32;20074;-63
2022/07/31 10:07:50;;;;;;;9.73;7.05;;;;;;;;;;4391130;32;20532;-65
2022/07/31 10:10:17;;;;;;;10.95;8.35;;;;;;;;;;4391355;32;20070;-65
2022/07/31 10:12:49;;;;;;;7.78;6.85;;;;;;;;;;4392830;32;20077;-65
2022/07/31 10:15:18;;;;;;;8.52;7.32;;;;;;;;;;4379024;32;20066;-65
2022/07/31 10:17:47;;;;;;;9.38;7.57;;;;;;;;;;4391345;32;20085;-64
2022/07/31 10:20:22;;;;;;;7.28;5.65;;;;;;;;;;4393279;32;20170;-64
2022/07/31 10:22:54;;;;;;;8.17;6.57;;;;;;;;;;4391146;32;20467;-65
2022/07/31 10:25:25;;;;;;;8.98;6.75;;;;;;;;;;4391356;32;20180;-64
2022/07/31 10:27:53;;;;;;;8.45;6.55;;;;;;;;;;4378535;32;20592;-65
2022/07/31 10:30:19;;;;;;;8.23;6.57;;;;;;;;;;4391373;32;20099;-64
2022/07/31 10:32:46;;;;;;;9.40;6.30;;;;;;;;;;4391133;32;20084;-65
2022/07/31 10:35:14;;;;;;;9.10;7.00;;;;;;;;;;4392285;32;20223;-64
2022/07/31 10:38:07;;;;;;;9.30;7.07;;;;;;;;;;4378390;32;20173;-64
2022/07/31 10:40:36;;;;;;;9.48;6.50;;;;;;;;;;4391030;32;20149;-64
2022/07/31 10:43:19;;;;;;;9.30;7.00;;;;;;;;;;4392804;32;20062;-64
2022/07/31 10:45:50;;;;;;;9.02;5.85;;;;;;;;;;4391663;32;20069;-63
2022/07/31 10:48:17;;;;;;;7.32;5.62;;;;;;;;;;4378427;32;20108;-65
2022/07/31 10:50:44;;;;;;;12.13;6.20;;;;;;;;;;4390563;32;20441;-65
2022/07/31 10:53:13;;;;;;;10.75;7.30;;;;;;;;;;4390689;32;20467;-65
2022/07/31 10:55:39;;;;;;;9.35;6.35;;;;;;;;;;4391485;32;20093;-65
2022/07/31 10:58:08;;;;;;;7.22;5.50;;;;;;;;;;4390308;32;20085;-63
2022/07/31 11:00:34;;;;;;;8.48;5.60;;;;;;;;;;4392808;32;20066;-64
2022/07/31 11:03:15;;;;;;;8.13;6.20;;;;;;;;;;4392261;32;20082;-64
2022/07/31 11:05:56;;;;;;;9.68;6.10;;;;;;;;;;4378476;32;20113;-65
2022/07/31 11:08:23;;;;;;;8.52;6.18;;;;;;;;;;4390733;32;20081;-64
2022/07/31 11:10:54;;;;;;;7.03;5.45;;;;;;;;;;4390949;32;20065;-65
2022/07/31 11:13:23;;;;;;;8.88;6.45;;;;;;;;;;4390590;32;20077;-64
2022/07/31 11:15:51;;;;;;;9.82;6.20;;;;;;;;;;4391319;32;20073;-64
2022/07/31 11:18:19;;;;;;;8.32;5.80;;;;;;;;;;4390222;32;20153;-63
2022/07/31 11:20:57;;;;;;;7.95;5.90;;;;;;;;;;4391664;32;20433;-64
2022/07/31 11:23:29;;;;;;;7.25;5.90;;;;;;;;;;4390978;32;20144;-65
2022/07/31 11:25:59;;;;;;;8.80;6.78;;;;;;;;;;4390349;32;20077;-64
2022/07/31 11:28:26;;;;;;;8.63;7.32;;;;;;;;;;4390350;32;20512;-65
2022/07/31 11:31:04;;;;;;;9.50;6.85;;;;;;;;;;4390665;32;20074;-64
2022/07/31 11:33:33;;;;;;;8.25;5.57;;;;;;;;;;4377664;32;20089;-64
2022/07/31 11:36:20;;;;;;;9.52;6.68;;;;;;;;;;4392003;32;20062;-65
2022/07/31 11:38:49;;;;;;;8.30;6.40;;;;;;;;;;4378793;32;20089;-64
2022/07/31 11:41:16;;;;;;;9.70;6.93;;;;;;;;;;4390186;32;20105;-65
2022/07/31 11:43:48;;;;;;;7.65;5.95;;;;;;;;;;4390390;32;20081;-63
2022/07/31 11:46:30;;;;;;;7.62;5.75;;;;;;;;;;4390112;32;20166;-65
2022/07/31 11:48:58;;;;;;;10.02;6.18;;;;;;;;;;4390634;32;20535;-65
2022/07/31 11:51:27;;;;;;;7.40;5.78;;;;;;;;;;4390387;32;20584;-64
2022/07/31 11:53:55;;;;;;;8.90;6.10;;;;;;;;;;4377712;32;20069;-64
2022/07/31 11:56:23;;;;;;;7.68;6.32;;;;;;;;;;4389943;32;20069;-64
2022/07/31 11:58:57;;;;;;;9.45;7.00;;;;;;;;;;4389866;32;20086;-64
2022/07/31 12:01:26;;;;;;;8.68;6.57;;;;;;;;;;4377361;32;20077;-65
2022/07/31 12:03:53;;;;;;;8.32;6.97;;;;;;;;;;4378008;32;20162;-64
2022/07/31 12:06:20;;;;;;;8.80;6.40;;;;;;;;;;4390358;32;20066;-65
2022/07/31 12:08:48;;;;;;;10.25;5.95;;;;;;;;;;4391021;32;20185;-65
2022/07/31 12:11:17;;;;;;;8.13;6.03;;;;;;;;;;4389937;32;20117;-65
2022/07/31 12:13:48;;;;;;;7.65;6.03;;;;;;;;;;4389893;32;20092;-64
2022/07/31 12:16:17;;;;;;;7.32;5.72;;;;;;;;;;4390004;32;20609;-64
2022/07/31 12:18:47;;;;;;;9.07;7.10;;;;;;;;;;4391296;32;20094;-64
2022/07/31 12:21:15;;;;;;;8.65;6.80;;;;;;;;;;4391409;32;20517;-64
2022/07/31 12:23:47;;;;;;;7.97;6.00;;;;;;;;;;4391415;32;20088;-64
2022/07/31 12:26:28;;;;;;;7.65;5.80;;;;;;;;;;4390304;32;20122;-64
2022/07/31 12:29:05;;;;;;;7.90;5.85;;;;;;;;;;4391185;32;20090;-64
2022/07/31 12:31:47;;;;;;;7.68;5.93;;;;;;;;;;4389721;32;20086;-65
2022/07/31 12:34:40;;;;;;;8.00;6.00;;;;;;;;;;4390834;32;20077;-65
2022/07/31 12:37:11;;;;;;;7.90;6.37;;;;;;;;;;4390553;32;20119;-65
2022/07/31 12:39:58;;;;;;;8.43;6.18;;;;;;;;;;4391037;32;20090;-65
2022/07/31 12:42:27;;;;;;;8.38;6.50;;;;;;;;;;4393486;32;20074;-64
2022/07/31 12:44:56;;;;;;;8.23;6.18;;;;;;;;;;4392531;32;20077;-65
2022/07/31 12:47:24;;;;;;;7.87;6.28;;;;;;;;;;4392092;32;20089;-65
2022/07/31 12:49:51;;;;;;;7.90;5.55;;;;;;;;;;4392657;32;20070;-64
2022/07/31 12:52:18;;;;;;;8.02;6.50;;;;;;;;;;4378822;32;20078;-64
2022/07/31 12:54:45;;;;;;;10.35;6.37;;;;;;;;;;4379094;32;20077;-64
2022/07/31 12:57:12;;;;;;;8.27;6.60;;;;;;;;;;4390876;32;20156;-65
2022/07/31 12:59:38;;;;;;;8.43;6.45;;;;;;;;;;4390902;32;20112;-64
2022/07/31 13:02:06;;;;;;;10.38;6.70;;;;;;;;;;4390349;32;20163;-65
2022/07/31 13:04:33;;;;;;;10.13;6.87;;;;;;;;;;4391400;32;20127;-64
2022/07/31 13:07:00;;;;;;;6.90;5.87;;;;;;;;;;4391000;32;20085;-65
2022/07/31 13:09:27;;;;;;;8.85;6.90;;;;;;;;;;4389460;32;20085;-64
2022/07/31 13:11:54;;;;;;;7.78;5.60;;;;;;;;;;4389492;32;20153;-65
2022/07/31 13:14:22;;;;;;;7.30;5.53;;;;;;;;;;4379324;32;20100;-64
2022/07/31 13:16:51;;;;;;;9.55;6.47;;;;;;;;;;4379918;32;20146;-63
2022/07/31 13:19:18;;;;;;;8.55;6.00;;;;;;;;;;4367582;32;20085;-64
2022/07/31 13:21:45;;;;;;;7.87;5.80;;;;;;;;;;4392273;32;20059;-64
2022/07/31 13:24:13;;;;;;;8.32;5.45;;;;;;;;;;4392458;32;20512;-64
2022/07/31 13:26:40;;;;;;;6.87;5.15;;;;;;;;;;4393487;32;20158;-64
2022/07/31 13:29:07;;;;;;;8.68;6.30;;;;;;;;;;4393824;32;20070;-64
2022/07/31 13:31:34;;;;;;;8.20;5.80;;;;;;;;;;4393624;32;20145;-64
2022/07/31 13:34:00;;;;;;;7.65;5.85;;;;;;;;;;4392152;32;20088;-64
2022/07/31 13:36:27;;;;;;;7.12;5.55;;;;;;;;;;4392655;32;20136;-64
2022/07/31 13:38:54;;;;;;;8.18;5.47;;;;;;;;;;4391764;32;20082;-64
2022/07/31 13:41:22;;;;;;;7.50;5.60;;;;;;;;;;4392432;32;20096;-65
2022/07/31 13:43:50;;;;;;;7.25;5.32;;;;;;;;;;4393605;32;20500;-64
2022/07/31 13:46:17;;;;;;;9.93;5.82;;;;;;;;;;4379339;32;20089;-65
2022/07/31 13:48:44;;;;;;;10.07;6.05;;;;;;;;;;4393054;32;20077;-64
2022/07/31 13:51:11;;;;;;;7.95;6.00;;;;;;;;;;4391734;32;20066;-65
2022/07/31 13:53:38;;;;;;;8.10;5.90;;;;;;;;;;4391944;32;20074;-63
2022/07/31 13:56:05;;;;;;;8.23;6.37;;;;;;;;;;4391619;32;20157;-64
2022/07/31 13:58:31;;;;;;;9.13;5.53;;;;;;;;;;4393037;32;20097;-63
2022/07/31 14:00:59;;;;;;;7.62;5.80;;;;;;;;;;4391572;32;20534;-64
2022/07/31 14:03:26;;;;;;;7.87;5.78;;;;;;;;;;4393095;32;20076;-63
2022/07/31 14:05:53;;;;;;;7.20;5.40;;;;;;;;;;4391473;32;20097;-64
2022/07/31 14:08:20;;;;;;;8.65;5.75;;;;;;;;;;4391388;32;20058;-64
2022/07/31 14:10:47;;;;;;;7.50;5.50;;;;;;;;;;4367151;32;20085;-65
2022/07/31 14:13:14;;;;;;;8.65;6.35;;;;;;;;;;4378961;32;20149;-64
2022/07/31 14:15:41;;;;;;;7.53;4.78;;;;;;;;;;4391459;32;20520;-64
2022/07/31 14:18:07;;;;;;;10.02;6.90;;;;;;;;;;4378767;32;20532;-64
2022/07/31 14:20:35;;;;;;;8.95;6.47;;;;;;;;;;4392733;32;20078;-64
2022/07/31 14:23:02;;;;;;;7.45;5.95;;;;;;;;;;4392104;32;20163;-64
2022/07/31 14:25:31;;;;;;;8.68;6.12;;;;;;;;;;4390739;32;20512;-65
2022/07/31 14:27:58;;;;;;;9.50;5.85;;;;;;;;;;4391263;32;20074;-64
2022/07/31 14:30:25;;;;;;;6.45;5.32;;;;;;;;;;4391246;32;20587;-65
2022/07/31 14:32:53;;;;;;;8.52;6.00;;;;;;;;;;4378232;32;20084;-64
2022/07/31 14:35:19;;;;;;;7.82;5.78;;;;;;;;;;4391052;32;20145;-65
2022/07/31 14:37:46;;;;;;;9.00;5.90;;;;;;;;;;4392925;32;20062;-64
2022/07/31 14:40:14;;;;;;;8.98;6.03;;;;;;;;;;4391208;32;20189;-64
2022/07/31 14:42:41;;;;;;;8.55;6.20;;;;;;;;;;4391036;32;20085;-65
2022/07/31 14:45:09;;;;;;;8.13;5.50;;;;;;;;;;4392225;32;20073;-64
2022/07/31 14:47:36;;;;;;;8.88;6.75;;;;;;;;;;4392041;32;20073;-65
2022/07/31 14:50:03;;;;;;;9.80;6.95;;;;;;;;;;4391413;32;20070;-63
2022/07/31 14:52:31;;;;;;;10.68;6.50;;;;;;;;;;4392369;32;20068;-64
2022/07/31 14:55:01;;;;;;;12.32;6.32;;;;;;;;;;4390755;32;20066;-63
2022/07/31 14:57:30;;;;;;;9.68;7.10;;;;;;;;;;4392153;32;20070;-64
2022/07/31 14:59:57;;;;;;;11.25;6.60;;;;;;;;;;4379096;32;20580;-64
2022/07/31 15:02:24;;;;;;;9.80;7.30;;;;;;;;;;4391814;32;20057;-64
2022/07/31 15:04:51;;;;;;;10.63;7.03;;;;;;;;;;4390742;32;20534;-65
2022/07/31 15:07:19;;;;;;;9.30;6.30;;;;;;;;;;4390532;32;20528;-64
2022/07/31 15:09:45;;;;;;;9.77;7.32;;;;;;;;;;4390663;32;20150;-64
2022/07/31 15:12:15;;;;;;;9.98;6.95;;;;;;;;;;4391855;32;20081;-64
2022/07/31 15:14:43;;;;;;;9.02;6.62;;;;;;;;;;4390942;32;20081;-64
2022/07/31 15:17:09;;;;;;;9.30;6.32;;;;;;;;;;4392250;32;20082;-64
2022/07/31 15:19:36;;;;;;;9.77;7.18;;;;;;;;;;4390644;32;20532;-64
2022/07/31 15:22:03;;;;;;;8.00;6.43;;;;;;;;;;4378032;32;20094;-65
2022/07/31 15:24:30;;;;;;;9.57;6.93;;;;;;;;;;4377381;32;20468;-63
2022/07/31 15:26:56;;;;;;;11.00;6.68;;;;;;;;;;4391628;32;20082;-64
2022/07/31 15:29:23;;;;;;;15.70;7.80;;;;;;;;;;4391530;32;20191;-65
2022/07/31 15:31:50;;;;;;;9.82;7.93;;;;;;;;;;4377940;32;20076;-64
2022/07/31 15:34:16;;;;;;;10.07;7.35;;;;;;;;;;4390420;32;20106;-65
2022/07/31 15:36:43;;;;;;;9.70;7.37;;;;;;;;;;4377706;32;20117;-64
2022/07/31 15:39:10;;;;;;;10.82;7.97;;;;;;;;;;4378119;32;20077;-63
2022/07/31 15:41:36;;;;;;;10.98;8.18;;;;;;;;;;4390146;32;20065;-65
2022/07/31 15:44:03;;;;;;;10.88;7.87;;;;;;;;;;4390197;32;20082;-64
2022/07/31 15:46:30;;;;;;;10.82;8.85;;;;;;;;;;4391822;32;20089;-63
2022/07/31 15:48:57;;;;;;;11.95;8.18;;;;;;;;;;4389999;32;20096;-64
2022/07/31 15:51:23;;;;;;;11.90;8.70;;;;;;;;;;4390376;32;20074;-64
2022/07/31 15:53:50;;;;;;;13.57;8.70;;;;;;;;;;4390057;32;20069;-63
2022/07/31 15:56:17;;;;;;;12.43;8.57;;;;;;;;;;4377480;32;20599;-64
2022/07/31 15:58:43;;;;;;;11.07;7.25;;;;;;;;;;4389769;32;20094;-64
2022/07/31 16:01:10;;;;;;;10.93;8.25;;;;;;;;;;4365513;32;20149;-63
2022/07/31 16:03:37;;;;;;;11.50;7.47;;;;;;;;;;4389953;32;20104;-63
2022/07/31 16:06:03;;;;;;;8.98;7.32;;;;;;;;;;4391213;32;20101;-65
2022/07/31 16:08:30;;;;;;;10.77;7.47;;;;;;;;;;4364864;32;20169;-64
2022/07/31 16:10:57;;;;;;;12.05;7.82;;;;;;;;;;4391321;32;20096;-66
2022/07/31 16:13:24;;;;;;;11.52;7.10;;;;;;;;;;4389977;32;20145;-65
2022/07/31 16:15:51;;;;;;;11.27;7.60;;;;;;;;;;4377234;32;20165;-64
2022/07/31 16:18:18;;;;;;;12.18;7.85;;;;;;;;;;4377161;32;20513;-63
2022/07/31 16:20:45;;;;;;;11.35;7.95;;;;;;;;;;4391273;32;20071;-64
2022/07/31 16:23:12;;;;;;;11.77;7.95;;;;;;;;;;4391085;32;20105;-64
2022/07/31 16:25:39;;;;;;;13.02;8.18;;;;;;;;;;4389551;32;20065;-63
2022/07/31 16:28:05;;;;;;;12.32;8.23;;;;;;;;;;4391387;32;20147;-63
2022/07/31 16:30:32;;;;;;;10.52;7.72;;;;;;;;;;4391485;32;20081;-64
2022/07/31 16:32:59;;;;;;;12.07;8.35;;;;;;;;;;4389875;32;20437;-64
2022/07/31 16:35:26;;;;;;;11.70;8.13;;;;;;;;;;4389659;32;20092;-65
2022/07/31 16:37:53;;;;;;;11.20;7.90;;;;;;;;;;4377886;32;20078;-64
2022/07/31 16:40:27;;;;;;;10.45;8.07;;;;;;;;;;4390733;32;20153;-65
2022/07/31 16:42:54;;;;;;;12.45;8.60;;;;;;;;;;4389781;32;20191;-65
2022/07/31 16:45:21;;;;;;;10.93;8.18;;;;;;;;;;4390015;32;20513;-64
2022/07/31 16:47:48;;;;;;;10.27;7.70;;;;;;;;;;4390717;32;20065;-63
2022/07/31 16:50:14;;;;;;;16.98;8.57;;;;;;;;;;4392479;32;20077;-64
2022/07/31 16:52:41;;;;;;;12.18;8.23;;;;;;;;;;4392690;32;20069;-64
2022/07/31 16:55:08;;;;;;;11.27;8.77;;;;;;;;;;4394202;32;20066;-64
2022/07/31 16:57:34;;;;;;;12.35;8.27;;;;;;;;;;4394151;32;20150;-64